Terminal Aerodrome Forecast
Issued by NWS Dodge City, KS

Home | Current Version | Previous Version | Text Only | Print | Product List | Glossary On
Versions: 1 2 3 4 5 6 7 8 9 10 11 12 13 14 15 16 17 18 19 20 21 22 23 24 25 26 27 28 29 30 31 32 33 34 35 36 37 38 39 40
289
FTUS43 KDDC 300921 AAA
TAFDDC
TAF AMD
KDDC 300921Z 3009/0106 01020G27KT 1 1/2SM -SN BR BKN007 OVC012
     FM301500 33027G36KT P6SM VCSH OVC010
     FM010000 33024G32KT P6SM OVC025
     FM010200 31022G30KT P6SM BKN045=

USA.gov is the U.S. government's official web portal to all federal, state and local government web resources and services.